sensor_id;sensor_type;location;lat;lon;timestamp;temperature;humidity
73665;DHT22;61964;52.052;4.474;2023-06-22T00:02:14;18.37;73.44
73665;DHT22;61964;52.052;4.474;2023-06-22T00:04:40;18.39;73.86
73665;DHT22;61964;52.052;4.474;2023-06-22T00:07:05;18.37;73.87
73665;DHT22;61964;52.052;4.474;2023-06-22T00:09:32;18.34;73.83
73665;DHT22;61964;52.052;4.474;2023-06-22T00:11:58;18.33;73.88
73665;DHT22;61964;52.052;4.474;2023-06-22T00:14:24;18.30;73.41
73665;DHT22;61964;52.052;4.474;2023-06-22T00:16:50;18.29;73.82
73665;DHT22;61964;52.052;4.474;2023-06-22T00:19:21;18.23;73.76
73665;DHT22;61964;52.052;4.474;2023-06-22T00:21:47;18.22;73.85
73665;DHT22;61964;52.052;4.474;2023-06-22T00:24:21;18.19;73.73
73665;DHT22;61964;52.052;4.474;2023-06-22T00:26:48;18.17;73.86
73665;DHT22;61964;52.052;4.474;2023-06-22T00:29:14;18.19;73.88
73665;DHT22;61964;52.052;4.474;2023-06-22T00:31:40;18.14;73.69
73665;DHT22;61964;52.052;4.474;2023-06-22T00:34:06;18.14;73.84
73665;DHT22;61964;52.052;4.474;2023-06-22T00:36:34;18.12;73.80
73665;DHT22;61964;52.052;4.474;2023-06-22T00:39:00;18.06;73.75
73665;DHT22;61964;52.052;4.474;2023-06-22T00:41:26;18.06;73.95
73665;DHT22;61964;52.052;4.474;2023-06-22T00:43:54;18.03;73.81
73665;DHT22;61964;52.052;4.474;2023-06-22T00:46:21;18.02;73.96
73665;DHT22;61964;52.052;4.474;2023-06-22T00:48:49;17.98;74.01
73665;DHT22;61964;52.052;4.474;2023-06-22T00:51:15;17.96;74.06
73665;DHT22;61964;52.052;4.474;2023-06-22T00:53:42;18.01;74.60
73665;DHT22;61964;52.052;4.474;2023-06-22T00:56:09;17.98;73.99
73665;DHT22;61964;52.052;4.474;2023-06-22T00:58:38;17.95;73.97
73665;DHT22;61964;52.052;4.474;2023-06-22T01:01:07;17.99;74.72
73665;DHT22;61964;52.052;4.474;2023-06-22T01:03:33;17.91;74.22
73665;DHT22;61964;52.052;4.474;2023-06-22T01:06:08;17.98;74.66
73665;DHT22;61964;52.052;4.474;2023-06-22T01:08:57;17.95;74.33
73665;DHT22;61964;52.052;4.474;2023-06-22T01:11:36;17.93;74.41
73665;DHT22;61964;52.052;4.474;2023-06-22T01:14:14;17.98;74.28
73665;DHT22;61964;52.052;4.474;2023-06-22T01:16:43;17.95;74.17
73665;DHT22;61964;52.052;4.474;2023-06-22T01:21:55;17.93;74.46
73665;DHT22;61964;52.052;4.474;2023-06-22T01:27:33;17.88;74.44
73665;DHT22;61964;52.052;4.474;2023-06-22T01:30:04;17.89;74.42
73665;DHT22;61964;52.052;4.474;2023-06-22T01:32:33;17.89;74.75
73665;DHT22;61964;52.052;4.474;2023-06-22T01:35:03;17.95;75.20
73665;DHT22;61964;52.052;4.474;2023-06-22T01:37:30;17.92;74.91
73665;DHT22;61964;52.052;4.474;2023-06-22T01:39:59;17.96;74.97
73665;DHT22;61964;52.052;4.474;2023-06-22T01:42:25;17.98;75.21
73665;DHT22;61964;52.052;4.474;2023-06-22T01:44:53;18.01;75.39
73665;DHT22;61964;52.052;4.474;2023-06-22T01:47:21;18.02;75.22
73665;DHT22;61964;52.052;4.474;2023-06-22T01:49:48;18.03;74.76
73665;DHT22;61964;52.052;4.474;2023-06-22T01:52:18;18.02;74.85
73665;DHT22;61964;52.052;4.474;2023-06-22T01:54:44;17.99;74.37
73665;DHT22;61964;52.052;4.474;2023-06-22T01:57:10;18.01;74.55
73665;DHT22;61964;52.052;4.474;2023-06-22T02:02:21;17.91;74.33
73665;DHT22;61964;52.052;4.474;2023-06-22T02:04:58;17.86;74.34
73665;DHT22;61964;52.052;4.474;2023-06-22T02:07:31;17.83;74.63
73665;DHT22;61964;52.052;4.474;2023-06-22T02:10:00;17.79;74.59
73665;DHT22;61964;52.052;4.474;2023-06-22T02:12:29;17.81;74.46
73665;DHT22;61964;52.052;4.474;2023-06-22T02:14:57;17.78;74.68
73665;DHT22;61964;52.052;4.474;2023-06-22T02:17:24;17.72;74.56
73665;DHT22;61964;52.052;4.474;2023-06-22T02:19:51;17.70;74.62
73665;DHT22;61964;52.052;4.474;2023-06-22T02:22:16;17.67;74.71
73665;DHT22;61964;52.052;4.474;2023-06-22T02:24:42;17.65;74.93
73665;DHT22;61964;52.052;4.474;2023-06-22T02:27:08;17.64;74.65
73665;DHT22;61964;52.052;4.474;2023-06-22T02:29:34;17.62;74.80
73665;DHT22;61964;52.052;4.474;2023-06-22T02:32:00;17.61;75.00
73665;DHT22;61964;52.052;4.474;2023-06-22T02:34:25;17.60;74.68
73665;DHT22;61964;52.052;4.474;2023-06-22T02:36:51;17.55;74.67
73665;DHT22;61964;52.052;4.474;2023-06-22T02:39:22;17.57;74.79
73665;DHT22;61964;52.052;4.474;2023-06-22T02:41:49;17.60;74.96
73665;DHT22;61964;52.052;4.474;2023-06-22T02:44:15;17.55;74.65
73665;DHT22;61964;52.052;4.474;2023-06-22T02:46:42;17.54;74.72
73665;DHT22;61964;52.052;4.474;2023-06-22T02:49:08;17.54;74.84
73665;DHT22;61964;52.052;4.474;2023-06-22T02:51:34;17.48;74.80
73665;DHT22;61964;52.052;4.474;2023-06-22T02:54:00;17.50;75.01
73665;DHT22;61964;52.052;4.474;2023-06-22T02:56:27;17.50;74.88
73665;DHT22;61964;52.052;4.474;2023-06-22T02:58:52;17.42;74.89
73665;DHT22;61964;52.052;4.474;2023-06-22T03:01:18;17.45;75.13
73665;DHT22;61964;52.052;4.474;2023-06-22T03:03:49;17.45;75.31
73665;DHT22;61964;52.052;4.474;2023-06-22T03:06:15;17.47;75.10
73665;DHT22;61964;52.052;4.474;2023-06-22T03:08:41;17.45;75.02
73665;DHT22;61964;52.052;4.474;2023-06-22T03:11:07;17.41;74.94
73665;DHT22;61964;52.052;4.474;2023-06-22T03:13:33;17.45;75.05
73665;DHT22;61964;52.052;4.474;2023-06-22T03:15:59;17.40;74.83
73665;DHT22;61964;52.052;4.474;2023-06-22T03:18:24;17.40;74.80
73665;DHT22;61964;52.052;4.474;2023-06-22T03:20:50;17.35;75.13
73665;DHT22;61964;52.052;4.474;2023-06-22T03:23:16;17.34;75.03
73665;DHT22;61964;52.052;4.474;2023-06-22T03:25:42;17.38;75.30
73665;DHT22;61964;52.052;4.474;2023-06-22T03:28:10;17.37;75.33
73665;DHT22;61964;52.052;4.474;2023-06-22T03:30:36;17.31;74.69
73665;DHT22;61964;52.052;4.474;2023-06-22T03:33:02;17.34;75.10
73665;DHT22;61964;52.052;4.474;2023-06-22T03:35:28;17.32;75.19
73665;DHT22;61964;52.052;4.474;2023-06-22T03:37:53;17.31;75.05
73665;DHT22;61964;52.052;4.474;2023-06-22T03:40:19;17.31;75.17
73665;DHT22;61964;52.052;4.474;2023-06-22T03:42:46;17.31;75.37
73665;DHT22;61964;52.052;4.474;2023-06-22T03:45:12;17.31;75.62
73665;DHT22;61964;52.052;4.474;2023-06-22T03:47:38;17.34;75.63
73665;DHT22;61964;52.052;4.474;2023-06-22T03:50:03;17.32;75.48
73665;DHT22;61964;52.052;4.474;2023-06-22T03:52:30;17.35;75.84
73665;DHT22;61964;52.052;4.474;2023-06-22T03:54:56;17.40;76.13
73665;DHT22;61964;52.052;4.474;2023-06-22T03:57:21;17.42;76.02
73665;DHT22;61964;52.052;4.474;2023-06-22T03:59:47;17.42;76.24
73665;DHT22;61964;52.052;4.474;2023-06-22T04:02:13;17.51;76.34
73665;DHT22;61964;52.052;4.474;2023-06-22T04:04:39;17.61;76.84
73665;DHT22;61964;52.052;4.474;2023-06-22T04:07:05;17.67;76.57
73665;DHT22;61964;52.052;4.474;2023-06-22T04:09:31;17.70;76.46
73665;DHT22;61964;52.052;4.474;2023-06-22T04:11:57;17.72;76.25
73665;DHT22;61964;52.052;4.474;2023-06-22T04:14:23;17.77;76.29
73665;DHT22;61964;52.052;4.474;2023-06-22T04:16:49;17.81;76.08
73665;DHT22;61964;52.052;4.474;2023-06-22T04:19:14;17.85;75.72
73665;DHT22;61964;52.052;4.474;2023-06-22T04:21:43;17.83;75.81
73665;DHT22;61964;52.052;4.474;2023-06-22T04:24:11;17.89;75.72
73665;DHT22;61964;52.052;4.474;2023-06-22T04:26:36;17.89;75.92
73665;DHT22;61964;52.052;4.474;2023-06-22T04:29:04;17.91;75.87
73665;DHT22;61964;52.052;4.474;2023-06-22T04:31:32;17.98;76.32
73665;DHT22;61964;52.052;4.474;2023-06-22T04:34:02;18.08;76.76
73665;DHT22;61964;52.052;4.474;2023-06-22T04:36:36;18.14;77.19
73665;DHT22;61964;52.052;4.474;2023-06-22T04:39:12;18.25;77.05
73665;DHT22;61964;52.052;4.474;2023-06-22T04:41:39;18.39;77.42
73665;DHT22;61964;52.052;4.474;2023-06-22T04:44:10;18.54;77.63
73665;DHT22;61964;52.052;4.474;2023-06-22T04:46:37;18.71;77.45
73665;DHT22;61964;52.052;4.474;2023-06-22T04:49:09;18.85;77.24
73665;DHT22;61964;52.052;4.474;2023-06-22T04:51:41;18.95;77.16
73665;DHT22;61964;52.052;4.474;2023-06-22T04:54:08;19.12;77.10
73665;DHT22;61964;52.052;4.474;2023-06-22T04:56:35;19.26;76.73
73665;DHT22;61964;52.052;4.474;2023-06-22T04:59:01;19.39;76.54
73665;DHT22;61964;52.052;4.474;2023-06-22T05:01:27;19.49;76.19
73665;DHT22;61964;52.052;4.474;2023-06-22T05:03:52;19.53;76.01
73665;DHT22;61964;52.052;4.474;2023-06-22T05:06:22;19.63;75.79
73665;DHT22;61964;52.052;4.474;2023-06-22T05:08:55;19.72;75.44
73665;DHT22;61964;52.052;4.474;2023-06-22T05:11:28;19.87;75.06
73665;DHT22;61964;52.052;4.474;2023-06-22T05:13:54;19.93;74.91
73665;DHT22;61964;52.052;4.474;2023-06-22T05:16:21;20.01;74.35
73665;DHT22;61964;52.052;4.474;2023-06-22T05:18:56;20.16;74.01
73665;DHT22;61964;52.052;4.474;2023-06-22T05:21:26;20.25;73.89
73665;DHT22;61964;52.052;4.474;2023-06-22T05:23:53;20.31;73.75
73665;DHT22;61964;52.052;4.474;2023-06-22T05:26:20;20.42;73.06
73665;DHT22;61964;52.052;4.474;2023-06-22T05:28:47;20.47;72.71
73665;DHT22;61964;52.052;4.474;2023-06-22T05:31:14;20.44;72.56
73665;DHT22;61964;52.052;4.474;2023-06-22T05:33:41;20.42;72.47
73665;DHT22;61964;52.052;4.474;2023-06-22T05:36:07;20.45;72.57
73665;DHT22;61964;52.052;4.474;2023-06-22T05:38:33;20.45;72.14
73665;DHT22;61964;52.052;4.474;2023-06-22T05:40:58;20.51;71.65
73665;DHT22;61964;52.052;4.474;2023-06-22T05:43:24;20.55;71.17
73665;DHT22;61964;52.052;4.474;2023-06-22T05:45:50;20.56;70.88
73665;DHT22;61964;52.052;4.474;2023-06-22T05:48:16;20.55;71.45
73665;DHT22;61964;52.052;4.474;2023-06-22T05:50:42;20.59;71.51
73665;DHT22;61964;52.052;4.474;2023-06-22T05:53:08;20.61;71.28
73665;DHT22;61964;52.052;4.474;2023-06-22T05:55:34;20.61;71.47
73665;DHT22;61964;52.052;4.474;2023-06-22T05:58:00;20.68;71.37
73665;DHT22;61964;52.052;4.474;2023-06-22T06:00:25;20.81;70.50
73665;DHT22;61964;52.052;4.474;2023-06-22T06:02:51;20.88;70.89
73665;DHT22;61964;52.052;4.474;2023-06-22T06:05:17;21.04;70.50
73665;DHT22;61964;52.052;4.474;2023-06-22T06:07:45;21.20;69.86
73665;DHT22;61964;52.052;4.474;2023-06-22T06:10:11;21.29;70.82
73665;DHT22;61964;52.052;4.474;2023-06-22T06:12:37;21.39;71.33
73665;DHT22;61964;52.052;4.474;2023-06-22T06:15:04;21.54;70.28
73665;DHT22;61964;52.052;4.474;2023-06-22T06:17:30;21.63;69.37
73665;DHT22;61964;52.052;4.474;2023-06-22T06:19:56;21.71;69.51
73665;DHT22;61964;52.052;4.474;2023-06-22T06:22:22;21.82;69.62
73665;DHT22;61964;52.052;4.474;2023-06-22T06:24:49;21.91;68.68
73665;DHT22;61964;52.052;4.474;2023-06-22T06:27:15;21.90;68.73
73665;DHT22;61964;52.052;4.474;2023-06-22T06:29:43;21.88;69.38
73665;DHT22;61964;52.052;4.474;2023-06-22T06:32:11;22.00;68.10
73665;DHT22;61964;52.052;4.474;2023-06-22T06:34:37;22.00;67.97
73665;DHT22;61964;52.052;4.474;2023-06-22T06:37:03;22.01;67.80
73665;DHT22;61964;52.052;4.474;2023-06-22T06:39:29;22.08;67.48
73665;DHT22;61964;52.052;4.474;2023-06-22T06:41:55;22.18;66.99
73665;DHT22;61964;52.052;4.474;2023-06-22T06:44:20;22.21;66.53
73665;DHT22;61964;52.052;4.474;2023-06-22T06:46:47;22.28;65.87
73665;DHT22;61964;52.052;4.474;2023-06-22T06:49:12;22.32;66.36
73665;DHT22;61964;52.052;4.474;2023-06-22T06:51:39;22.43;66.36
73665;DHT22;61964;52.052;4.474;2023-06-22T06:54:04;22.56;65.31
73665;DHT22;61964;52.052;4.474;2023-06-22T06:56:30;22.60;64.03
73665;DHT22;61964;52.052;4.474;2023-06-22T06:58:58;22.69;62.76
73665;DHT22;61964;52.052;4.474;2023-06-22T07:01:24;22.77;63.73
73665;DHT22;61964;52.052;4.474;2023-06-22T07:03:50;22.91;64.56
73665;DHT22;61964;52.052;4.474;2023-06-22T07:06:16;23.00;62.06
73665;DHT22;61964;52.052;4.474;2023-06-22T07:08:42;23.07;61.70
73665;DHT22;61964;52.052;4.474;2023-06-22T07:11:08;23.14;61.91
73665;DHT22;61964;52.052;4.474;2023-06-22T07:13:34;23.24;59.51
73665;DHT22;61964;52.052;4.474;2023-06-22T07:16:00;23.32;59.36
73665;DHT22;61964;52.052;4.474;2023-06-22T07:18:25;23.30;59.94
73665;DHT22;61964;52.052;4.474;2023-06-22T07:20:52;23.41;59.56
73665;DHT22;61964;52.052;4.474;2023-06-22T07:23:18;23.52;58.99
73665;DHT22;61964;52.052;4.474;2023-06-22T07:25:43;23.57;58.34
73665;DHT22;61964;52.052;4.474;2023-06-22T07:28:09;23.68;57.90
73665;DHT22;61964;52.052;4.474;2023-06-22T07:30:35;23.71;57.20
73665;DHT22;61964;52.052;4.474;2023-06-22T07:33:02;23.72;59.41
73665;DHT22;61964;52.052;4.474;2023-06-22T07:35:30;23.85;56.73
73665;DHT22;61964;52.052;4.474;2023-06-22T07:37:56;23.96;56.13
73665;DHT22;61964;52.052;4.474;2023-06-22T07:40:22;24.06;55.04
73665;DHT22;61964;52.052;4.474;2023-06-22T07:42:47;24.10;56.23
73665;DHT22;61964;52.052;4.474;2023-06-22T07:45:14;24.27;55.12
73665;DHT22;61964;52.052;4.474;2023-06-22T07:47:39;24.40;54.69
73665;DHT22;61964;52.052;4.474;2023-06-22T07:50:06;24.49;53.49
73665;DHT22;61964;52.052;4.474;2023-06-22T07:52:32;24.57;53.35
73665;DHT22;61964;52.052;4.474;2023-06-22T07:54:58;24.65;54.15
73665;DHT22;61964;52.052;4.474;2023-06-22T07:57:24;24.78;52.88
73665;DHT22;61964;52.052;4.474;2023-06-22T07:59:58;24.80;55.52
73665;DHT22;61964;52.052;4.474;2023-06-22T08:02:24;24.90;57.36
73665;DHT22;61964;52.052;4.474;2023-06-22T08:04:50;24.94;54.88
73665;DHT22;61964;52.052;4.474;2023-06-22T08:07:16;24.99;56.15
73665;DHT22;61964;52.052;4.474;2023-06-22T08:09:48;25.08;55.78
73665;DHT22;61964;52.052;4.474;2023-06-22T08:12:15;25.11;56.57
73665;DHT22;61964;52.052;4.474;2023-06-22T08:14:43;25.11;56.80
73665;DHT22;61964;52.052;4.474;2023-06-22T08:17:11;25.04;55.69
73665;DHT22;61964;52.052;4.474;2023-06-22T08:19:37;25.08;56.71
73665;DHT22;61964;52.052;4.474;2023-06-22T08:22:03;25.12;55.78
73665;DHT22;61964;52.052;4.474;2023-06-22T08:24:29;25.21;57.01
73665;DHT22;61964;52.052;4.474;2023-06-22T08:26:56;25.38;57.70
73665;DHT22;61964;52.052;4.474;2023-06-22T08:29:21;25.58;55.80
73665;DHT22;61964;52.052;4.474;2023-06-22T08:31:47;25.67;55.25
73665;DHT22;61964;52.052;4.474;2023-06-22T08:34:13;25.65;53.30
73665;DHT22;61964;52.052;4.474;2023-06-22T08:36:39;25.65;51.78
73665;DHT22;61964;52.052;4.474;2023-06-22T08:39:10;25.66;53.98
73665;DHT22;61964;52.052;4.474;2023-06-22T08:41:36;25.80;52.73
73665;DHT22;61964;52.052;4.474;2023-06-22T08:44:02;25.84;50.11
73665;DHT22;61964;52.052;4.474;2023-06-22T08:46:29;25.91;49.85
73665;DHT22;61964;52.052;4.474;2023-06-22T08:48:59;25.94;50.57
73665;DHT22;61964;52.052;4.474;2023-06-22T08:51:27;25.94;52.29
73665;DHT22;61964;52.052;4.474;2023-06-22T08:53:52;26.01;49.37
73665;DHT22;61964;52.052;4.474;2023-06-22T08:56:18;25.96;50.31
73665;DHT22;61964;52.052;4.474;2023-06-22T08:58:44;26.05;52.21
73665;DHT22;61964;52.052;4.474;2023-06-22T09:01:10;26.14;51.10
73665;DHT22;61964;52.052;4.474;2023-06-22T09:03:35;26.25;53.69
73665;DHT22;61964;52.052;4.474;2023-06-22T09:06:03;26.30;51.77
73665;DHT22;61964;52.052;4.474;2023-06-22T09:08:29;26.41;52.87
73665;DHT22;61964;52.052;4.474;2023-06-22T09:10:55;26.61;52.45
73665;DHT22;61964;52.052;4.474;2023-06-22T09:13:20;26.65;50.61
73665;DHT22;61964;52.052;4.474;2023-06-22T09:15:47;26.62;49.37
73665;DHT22;61964;52.052;4.474;2023-06-22T09:18:14;26.59;49.62
73665;DHT22;61964;52.052;4.474;2023-06-22T09:20:39;26.53;50.68
73665;DHT22;61964;52.052;4.474;2023-06-22T09:23:05;26.42;51.78
73665;DHT22;61964;52.052;4.474;2023-06-22T09:25:31;26.25;52.51
73665;DHT22;61964;52.052;4.474;2023-06-22T09:27:57;26.18;54.29
73665;DHT22;61964;52.052;4.474;2023-06-22T09:30:22;26.48;55.26
73665;DHT22;61964;52.052;4.474;2023-06-22T09:32:48;26.65;54.77
73665;DHT22;61964;52.052;4.474;2023-06-22T09:35:14;26.82;52.74
73665;DHT22;61964;52.052;4.474;2023-06-22T09:37:40;26.83;53.45
73665;DHT22;61964;52.052;4.474;2023-06-22T09:40:07;26.93;52.72
73665;DHT22;61964;52.052;4.474;2023-06-22T09:42:35;26.85;52.04
73665;DHT22;61964;52.052;4.474;2023-06-22T09:45:01;26.55;51.46
73665;DHT22;61964;52.052;4.474;2023-06-22T09:47:28;26.20;51.48
73665;DHT22;61964;52.052;4.474;2023-06-22T09:49:54;26.11;52.18
73665;DHT22;61964;52.052;4.474;2023-06-22T09:52:21;26.11;53.69
73665;DHT22;61964;52.052;4.474;2023-06-22T09:54:47;26.05;51.24
73665;DHT22;61964;52.052;4.474;2023-06-22T09:57:13;26.07;52.19
73665;DHT22;61964;52.052;4.474;2023-06-22T09:59:39;26.10;53.93
73665;DHT22;61964;52.052;4.474;2023-06-22T10:02:08;26.17;50.84
73665;DHT22;61964;52.052;4.474;2023-06-22T10:04:34;26.03;51.07
73665;DHT22;61964;52.052;4.474;2023-06-22T10:07:00;26.14;52.21
73665;DHT22;61964;52.052;4.474;2023-06-22T10:09:26;26.30;50.09
73665;DHT22;61964;52.052;4.474;2023-06-22T10:11:52;26.48;50.30
73665;DHT22;61964;52.052;4.474;2023-06-22T10:14:18;26.55;50.21
73665;DHT22;61964;52.052;4.474;2023-06-22T11:10:15;25.97;52.91
73665;DHT22;61964;52.052;4.474;2023-06-22T16:50:50;22.59;74.05
73665;DHT22;61964;52.052;4.474;2023-06-22T19:26:29;21.70;69.05
73665;DHT22;61964;52.052;4.474;2023-06-22T21:09:59;20.16;71.54
73665;DHT22;61964;52.052;4.474;2023-06-22T22:39:43;19.52;71.08
73665;DHT22;61964;52.052;4.474;2023-06-22T22:42:49;19.55;71.06
73665;DHT22;61964;52.052;4.474;2023-06-22T23:34:32;18.94;73.62
